Time;durP1;ratioP1;P1;durP2;ratioP2;P2;SDS_P1;SDS_P2;PMS_P1;PMS_P2;Temp;Humidity;BMP_temperature;BMP_pressure;BME280_temperature;BME280_humidity;BME280_pressure;Samples;Min_cycle;Max_cycle;Signal;HPM_P1;HPM_P2
2022/03/26 00:00:20;;;;;;;14.23;8.85;;;;;;;4.74;58.66;101838.38;5132062;28;20100;-83
2022/03/26 00:02:46;;;;;;;16.25;9.43;;;;;;;4.79;58.35;101836.28;5092649;28;20146;-84
2022/03/26 00:05:11;;;;;;;16.30;9.40;;;;;;;4.79;58.13;101836.28;5107368;28;20027;-84
2022/03/26 00:07:37;;;;;;;18.97;10.37;;;;;;;4.70;58.71;101846.66;5110194;28;20624;-84
2022/03/26 00:10:03;;;;;;;16.80;9.07;;;;;;;4.77;58.35;101850.66;5113366;28;20023;-84
2022/03/26 00:12:29;;;;;;;14.98;9.13;;;;;;;4.66;58.60;101851.34;5113330;28;20110;-83
2022/03/26 00:14:54;;;;;;;15.97;9.10;;;;;;;4.72;58.24;101839.44;5101641;28;20031;-84
2022/03/26 00:17:20;;;;;;;19.73;9.83;;;;;;;4.66;58.48;101848.66;5113807;28;20332;-83
2022/03/26 00:19:45;;;;;;;16.80;9.63;;;;;;;4.65;58.75;101854.94;5113262;28;20027;-84
2022/03/26 00:22:11;;;;;;;16.93;9.30;;;;;;;4.61;58.43;101850.72;5112381;28;20100;-84
2022/03/26 00:24:37;;;;;;;17.13;9.57;;;;;;;4.58;58.27;101851.78;5112854;28;20510;-85
2022/03/26 00:27:02;;;;;;;17.05;9.80;;;;;;;4.53;58.03;101843.22;5110844;28;20031;-83
2022/03/26 00:29:28;;;;;;;15.48;9.23;;;;;;;4.52;58.42;101848.63;5097918;28;20058;-83
2022/03/26 00:31:54;;;;;;;15.45;8.95;;;;;;;4.57;58.28;101855.41;5112398;28;20034;-83
2022/03/26 00:34:19;;;;;;;18.53;8.70;;;;;;;4.50;58.29;101863.88;5077224;28;20043;-84
2022/03/26 00:36:45;;;;;;;15.30;8.77;;;;;;;4.41;58.68;101854.63;5082121;28;20536;-83
2022/03/26 00:39:10;;;;;;;17.33;8.80;;;;;;;4.37;58.51;101856.59;5092086;28;20078;-84
2022/03/26 00:41:36;;;;;;;16.43;9.03;;;;;;;4.37;58.60;101859.25;5094834;28;20063;-83
2022/03/26 00:44:02;;;;;;;16.37;8.33;;;;;;;4.29;58.72;101856.22;5112681;28;20503;-84
2022/03/26 00:46:27;;;;;;;15.20;8.48;;;;;;;4.34;58.30;101858.59;5109396;28;20039;-84
2022/03/26 00:48:56;;;;;;;13.23;8.37;;;;;;;4.30;58.56;101863.22;5110417;28;20039;-83
2022/03/26 00:51:21;;;;;;;14.65;8.93;;;;;;;4.29;58.52;101871.31;5109503;28;20020;-84
2022/03/26 00:53:47;;;;;;;18.73;9.20;;;;;;;4.23;58.68;101861.88;5110985;28;20038;-85
2022/03/26 00:56:12;;;;;;;16.10;9.20;;;;;;;4.10;58.70;101858.25;5111132;28;20553;-83
2022/03/26 00:58:39;;;;;;;16.50;8.63;;;;;;;4.13;58.92;101860.72;5110794;28;20032;-84
2022/03/26 01:01:04;;;;;;;;;;;;;;;4.15;59.15;101869.47;5110651;28;20407;-83
2022/03/26 01:03:29;;;;;;;;;;;;;;;4.06;59.36;101876.19;5103544;28;19916;-82
2022/03/26 01:05:55;;;;;;;16.27;8.53;;;;;;;4.10;59.23;101872.41;5096312;28;19916;-84
2022/03/26 01:08:20;;;;;;;16.13;8.23;;;;;;;4.02;59.48;101880.81;5100075;28;20039;-84
2022/03/26 01:10:46;;;;;;;17.17;9.07;;;;;;;4.06;59.38;101888.63;5102815;28;20035;-84
2022/03/26 01:13:12;;;;;;;15.00;8.88;;;;;;;3.99;59.48;101886.31;5086144;28;20059;-82
2022/03/26 01:15:38;;;;;;;14.88;9.00;;;;;;;4.02;59.67;101893.25;5073353;28;20036;-82
2022/03/26 01:18:03;;;;;;;15.98;8.98;;;;;;;4.11;59.01;101891.88;5093706;28;20476;-81
2022/03/26 01:20:30;;;;;;;14.73;8.83;;;;;;;4.05;59.16;101898.44;5100905;28;20035;-81
2022/03/26 01:22:55;;;;;;;15.95;8.63;;;;;;;3.93;59.27;101875.16;5107136;28;20031;-81
2022/03/26 01:25:21;;;;;;;20.98;9.18;;;;;;;3.94;59.48;101896.38;5107232;28;20032;-81
2022/03/26 01:27:46;;;;;;;14.83;9.07;;;;;;;3.96;59.28;101885.66;5113396;28;20024;-82
2022/03/26 01:30:12;;;;;;;16.53;9.03;;;;;;;4.04;58.95;101885.19;5108646;28;20297;-81
2022/03/26 01:32:38;;;;;;;16.85;8.75;;;;;;;3.94;59.24;101895.53;5091548;28;20032;-81
2022/03/26 01:35:04;;;;;;;17.40;8.83;;;;;;;4.05;58.81;101892.22;5109848;28;20043;-82
2022/03/26 01:37:29;;;;;;;16.63;8.23;;;;;;;3.95;58.80;101894.56;5099368;28;20472;-81
2022/03/26 01:39:55;;;;;;;15.47;9.07;;;;;;;3.91;58.98;101908.97;5096973;28;20028;-82
2022/03/26 01:42:20;;;;;;;15.37;8.70;;;;;;;3.80;59.18;101902.47;5088332;28;20070;-79
2022/03/26 01:44:46;;;;;;;15.77;8.40;;;;;;;3.81;59.21;101912.16;5101313;28;20035;-80
2022/03/26 01:47:11;;;;;;;16.37;8.53;;;;;;;3.85;59.22;101906.69;5102834;28;20126;-79
2022/03/26 01:49:37;;;;;;;13.87;8.20;;;;;;;3.81;59.30;101913.97;5096361;28;20058;-79
2022/03/26 01:52:03;;;;;;;16.53;8.43;;;;;;;3.73;59.48;101918.88;5103695;28;20435;-79
2022/03/26 01:54:29;;;;;;;13.68;7.78;;;;;;;3.74;59.88;101915.25;5104110;28;20024;-83
2022/03/26 01:56:55;;;;;;;13.90;8.25;;;;;;;3.71;59.83;101921.63;5109983;28;20087;-79
2022/03/26 01:59:23;;;;;;;15.95;9.18;;;;;;;3.71;59.63;101923.44;5107283;28;20415;-83
2022/03/26 02:01:48;;;;;;;15.32;8.77;;;;;;;3.77;59.94;101923.09;5108635;28;20039;-83
2022/03/26 02:04:14;;;;;;;13.70;8.27;;;;;;;3.77;59.44;101923.09;5107545;28;20031;-85
2022/03/26 02:06:40;;;;;;;14.50;8.13;;;;;;;3.81;58.98;101924.63;5107665;28;20028;-82
2022/03/26 02:09:07;;;;;;;15.38;8.30;;;;;;;3.79;59.21;101930.03;5110657;28;20130;-82
2022/03/26 02:11:34;;;;;;;15.35;8.40;;;;;;;3.77;58.57;101936.41;5098414;28;20039;-83
2022/03/26 02:14:01;;;;;;;16.70;9.18;;;;;;;3.70;58.76;101916.38;5084944;28;20039;-81
2022/03/26 02:16:26;;;;;;;15.57;8.85;;;;;;;3.86;58.73;101943.84;5120357;28;20023;-82
2022/03/26 02:18:52;;;;;;;15.30;8.60;;;;;;;3.77;58.88;101939.06;5118884;28;20389;-83
2022/03/26 02:21:18;;;;;;;14.77;8.50;;;;;;;3.75;58.92;101943.59;5103924;28;20061;-84
2022/03/26 02:23:44;;;;;;;14.98;8.13;;;;;;;3.61;58.87;101930.22;5093239;28;20039;-82
2022/03/26 02:26:10;;;;;;;17.67;9.10;;;;;;;3.52;59.19;101923.59;5110170;28;20423;-81
2022/03/26 02:28:36;;;;;;;15.33;8.37;;;;;;;3.56;59.28;101941.09;5105585;28;20423;-83
2022/03/26 02:31:01;;;;;;;14.02;8.48;;;;;;;3.47;59.67;101938.94;5097886;28;20115;-83
2022/03/26 02:33:27;;;;;;;15.57;8.80;;;;;;;3.40;59.73;101945.53;5101449;28;20099;-83
2022/03/26 02:35:52;;;;;;;16.20;8.50;;;;;;;3.22;60.06;101921.66;5112571;28;20040;-82
2022/03/26 02:38:18;;;;;;;15.63;8.90;;;;;;;3.16;60.08;101932.59;5118054;28;20044;-81
2022/03/26 02:40:45;;;;;;;14.90;8.13;;;;;;;3.23;59.76;101933.13;5103684;28;20027;-82
2022/03/26 02:43:11;;;;;;;13.88;8.00;;;;;;;3.16;60.02;101938.78;5089941;28;20044;-83
2022/03/26 02:45:36;;;;;;;16.47;8.40;;;;;;;3.13;60.04;101936.28;5107995;28;20042;-81
2022/03/26 02:48:02;;;;;;;15.43;8.50;;;;;;;3.17;59.93;101945.81;5102848;28;20059;-83
2022/03/26 02:50:27;;;;;;;13.00;7.87;;;;;;;3.10;60.22;101954.19;5090664;28;20032;-82
2022/03/26 02:52:53;;;;;;;16.60;7.87;;;;;;;3.02;60.45;101945.75;5110807;28;20028;-83
2022/03/26 02:55:18;;;;;;;15.07;8.50;;;;;;;3.04;60.51;101943.88;5109885;28;20039;-82
2022/03/26 02:57:46;;;;;;;13.77;8.27;;;;;;;2.95;60.42;101934.63;5098513;28;20054;-82
2022/03/26 03:00:16;;;;;;;15.80;8.02;;;;;;;3.17;60.04;101964.41;5095893;28;20115;-84
2022/03/26 03:02:42;;;;;;;12.23;7.73;;;;;;;3.01;60.19;101939.59;5083547;28;20046;-82
2022/03/26 03:05:08;;;;;;;14.15;7.75;;;;;;;3.05;60.11;101954.44;5109975;28;20088;-81
2022/03/26 03:07:33;;;;;;;12.10;7.25;;;;;;;3.19;59.62;101971.47;5098499;28;20043;-83
2022/03/26 03:09:59;;;;;;;18.27;8.10;;;;;;;3.09;59.63;101957.78;5095115;28;21070;-82
2022/03/26 03:12:28;;;;;;;15.23;8.20;;;;;;;3.03;59.65;101952.81;5105548;28;20043;-82
2022/03/26 03:14:54;;;;;;;14.43;8.25;;;;;;;3.00;59.72;101969.78;5101081;28;20114;-82
2022/03/26 03:17:19;;;;;;;13.43;7.65;;;;;;;2.96;59.59;101968.22;5099746;28;20538;-83
2022/03/26 03:19:45;;;;;;;16.20;7.53;;;;;;;2.95;59.59;101979.78;5106941;28;20484;-82
2022/03/26 03:22:10;;;;;;;14.83;7.63;;;;;;;3.01;59.17;101987.41;5110753;28;20032;-81
2022/03/26 03:24:36;;;;;;;15.02;8.38;;;;;;;2.96;59.09;101981.50;5108953;28;20035;-80
2022/03/26 03:27:02;;;;;;;13.47;7.90;;;;;;;3.02;58.81;102005.09;5105331;28;20036;-81
2022/03/26 03:29:27;;;;;;;13.77;8.18;;;;;;;2.96;59.15;102003.59;5113387;28;20281;-82
2022/03/26 03:31:53;;;;;;;17.50;8.90;;;;;;;2.90;59.52;102005.72;5108457;28;20048;-82
2022/03/26 03:34:18;;;;;;;16.93;8.70;;;;;;;2.99;58.52;102010.53;5093736;28;20079;-83
2022/03/26 03:36:44;;;;;;;18.43;9.47;;;;;;;3.01;58.73;102014.00;5110489;28;20168;-82
2022/03/26 03:39:09;;;;;;;20.10;10.40;;;;;;;2.97;58.82;102007.09;5093826;28;20050;-82
2022/03/26 03:41:35;;;;;;;17.07;9.50;;;;;;;2.94;58.43;102013.44;5112219;28;20031;-82
2022/03/26 03:44:03;;;;;;;14.50;8.02;;;;;;;2.87;57.93;102005.88;5107805;28;20027;-82
2022/03/26 03:46:33;;;;;;;13.40;7.57;;;;;;;2.79;57.90;102016.03;5105945;28;20062;-84
2022/03/26 03:48:59;;;;;;;13.02;7.57;;;;;;;2.71;57.84;102017.25;5092244;28;20140;-82
2022/03/26 03:51:24;;;;;;;13.25;7.63;;;;;;;2.78;57.61;102022.28;5110774;28;20118;-82
2022/03/26 03:53:50;;;;;;;16.60;8.20;;;;;;;2.72;58.25;102026.97;5110292;28;20063;-82
2022/03/26 03:56:15;;;;;;;16.30;8.50;;;;;;;2.64;58.19;102037.09;5111009;28;20026;-81
2022/03/26 03:58:41;;;;;;;13.30;7.33;;;;;;;2.72;57.05;102028.75;5110851;28;20061;-81
2022/03/26 04:01:06;;;;;;;13.53;7.63;;;;;;;2.68;56.92;102030.69;5104206;27;20024;-82
2022/03/26 04:03:32;;;;;;;15.00;7.87;;;;;;;2.62;57.07;102033.69;5103373;28;20380;-82
2022/03/26 04:05:58;;;;;;;13.63;7.67;;;;;;;2.70;56.86;102041.25;5109245;28;20039;-83
2022/03/26 04:08:24;;;;;;;;;;;;;;;2.73;56.72;102033.97;5099191;28;20046;-83
2022/03/26 04:10:49;;;;;;;;;;;;;;;2.58;57.15;102037.41;5111658;28;20344;-83
2022/03/26 04:13:14;;;;;;;16.93;6.67;;;;;;;2.69;56.12;102032.44;5108062;28;19963;-81
2022/03/26 04:15:40;;;;;;;12.33;7.33;;;;;;;2.68;56.54;102032.50;5102266;28;20127;-83
2022/03/26 04:18:06;;;;;;;13.50;7.10;;;;;;;2.64;56.48;102031.78;5107773;28;20028;-82
2022/03/26 04:20:32;;;;;;;;;;;;;;;2.63;56.78;102048.66;5080384;28;20096;-82
2022/03/26 04:22:58;;;;;;;;;;;;;;;2.70;56.33;102028.84;5105473;28;19915;-82
2022/03/26 04:25:23;;;;;;;11.98;6.55;;;;;;;2.60;56.42;102030.25;5111133;28;20006;-83
2022/03/26 04:27:49;;;;;;;12.55;6.38;;;;;;;2.66;56.52;102035.22;5094836;28;20039;-82
2022/03/26 04:30:15;;;;;;;19.15;8.43;;;;;;;2.64;56.72;102031.78;5106969;28;20040;-83
2022/03/26 04:32:41;;;;;;;20.38;8.45;;;;;;;2.79;56.32;102050.56;5094079;28;20076;-83
2022/03/26 04:35:07;;;;;;;15.90;8.18;;;;;;;2.75;56.46;102049.84;5094971;27;20047;-83
2022/03/26 04:37:34;;;;;;;13.88;8.18;;;;;;;2.90;56.21;102054.41;5110008;28;20097;-84
2022/03/26 04:39:59;;;;;;;14.98;8.18;;;;;;;3.00;55.87;102049.47;5098872;28;20043;-83
2022/03/26 04:42:25;;;;;;;16.77;8.32;;;;;;;2.91;56.38;102049.94;5115019;28;20027;-82
2022/03/26 04:44:51;;;;;;;17.25;8.73;;;;;;;3.06;56.33;102069.56;5109291;28;20122;-82
2022/03/26 04:47:18;;;;;;;15.98;8.75;;;;;;;3.01;56.66;102064.47;5114935;28;20427;-83
2022/03/26 04:49:44;;;;;;;17.40;8.68;;;;;;;3.06;56.40;102058.94;5105417;28;20062;-82
2022/03/26 04:52:10;;;;;;;14.98;8.43;;;;;;;3.27;56.32;102073.75;5100888;28;20039;-83
2022/03/26 04:54:35;;;;;;;17.80;8.70;;;;;;;3.39;56.11;102069.59;5124439;28;20051;-83
2022/03/26 04:57:01;;;;;;;16.80;9.17;;;;;;;3.45;55.96;102076.44;5114415;28;20024;-82
2022/03/26 04:59:26;;;;;;;25.65;10.13;;;;;;;3.45;56.04;102061.31;5112065;28;20024;-83
2022/03/26 05:01:52;;;;;;;16.13;9.30;;;;;;;3.50;56.32;102075.22;5096237;28;20549;-83
2022/03/26 05:04:18;;;;;;;18.50;9.10;;;;;;;3.71;55.76;102083.03;5102627;28;20035;-83
2022/03/26 05:06:43;;;;;;;23.33;10.05;;;;;;;3.89;55.26;102084.69;5095534;28;20023;-82
2022/03/26 05:09:09;;;;;;;22.63;11.20;;;;;;;3.93;55.22;102086.25;5102099;28;20031;-83
2022/03/26 05:11:34;;;;;;;22.77;11.73;;;;;;;4.01;54.93;102089.34;5117969;28;20070;-82
2022/03/26 05:14:00;;;;;;;27.85;11.20;;;;;;;4.01;54.93;102081.38;5117643;28;20041;-83
2022/03/26 05:16:25;;;;;;;21.47;11.10;;;;;;;3.80;55.93;102087.84;5113288;28;20031;-82
2022/03/26 05:18:51;;;;;;;27.37;11.43;;;;;;;4.08;55.51;102086.38;5111498;28;20031;-82
2022/03/26 05:21:16;;;;;;;23.80;11.33;;;;;;;4.14;55.17;102080.69;5109605;28;20296;-81
2022/03/26 05:23:42;;;;;;;21.80;11.07;;;;;;;4.32;54.55;102079.66;5095198;28;20488;-83
2022/03/26 05:26:07;;;;;;;23.23;11.97;;;;;;;4.31;54.70;102077.97;5111696;28;20301;-83
2022/03/26 05:28:33;;;;;;;21.63;11.03;;;;;;;4.35;54.58;102095.47;5101179;28;20123;-83
2022/03/26 05:30:59;;;;;;;22.43;11.00;;;;;;;4.53;54.40;102092.72;5106376;28;20181;-83
2022/03/26 05:33:24;;;;;;;23.50;11.83;;;;;;;4.64;54.20;102091.16;5089338;28;20296;-86
2022/03/26 05:35:50;;;;;;;25.27;12.23;;;;;;;4.68;53.82;102091.84;5091346;28;20293;-82
2022/03/26 05:38:15;;;;;;;23.10;11.53;;;;;;;4.72;54.03;102093.38;5112506;28;20303;-84
2022/03/26 05:40:41;;;;;;;23.37;11.47;;;;;;;5.36;52.44;102099.44;5074041;28;20028;-82
2022/03/26 05:43:07;;;;;;;20.60;11.87;;;;;;;7.01;48.22;102102.41;5085524;28;20313;-85
2022/03/26 05:45:32;;;;;;;23.73;11.52;;;;;;;8.51;44.09;102097.25;5105885;28;20312;-84
2022/03/26 05:48:02;;;;;;;22.27;10.83;;;;;;;9.64;42.18;102097.69;5101468;28;20119;-84
2022/03/26 05:50:29;;;;;;;16.85;10.43;;;;;;;10.63;39.74;102091.56;5105425;28;20312;-84
2022/03/26 05:52:55;;;;;;;24.73;12.07;;;;;;;11.65;37.21;102099.16;5102401;28;20023;-84
2022/03/26 05:55:22;;;;;;;22.40;11.35;;;;;;;12.28;35.78;102097.22;5118290;28;20344;-81
2022/03/26 05:57:48;;;;;;;15.85;10.48;;;;;;;13.62;33.62;102098.44;5111556;28;20093;-83
2022/03/26 06:00:13;;;;;;;17.25;10.90;;;;;;;13.68;32.94;102098.69;5093153;28;20043;-84
2022/03/26 06:02:39;;;;;;;18.70;10.63;;;;;;;14.34;31.63;102086.91;5103273;28;20050;-84
2022/03/26 06:05:05;;;;;;;22.80;11.27;;;;;;;13.86;32.17;102096.09;5105480;28;20062;-82
2022/03/26 06:07:31;;;;;;;23.95;11.98;;;;;;;15.04;30.93;102102.56;5106593;28;20035;-83
2022/03/26 06:09:56;;;;;;;21.40;11.25;;;;;;;14.46;31.10;102092.94;5105902;28;20067;-83
2022/03/26 06:12:22;;;;;;;20.80;11.25;;;;;;;15.69;29.66;102113.06;5108811;28;20028;-84
2022/03/26 06:14:48;;;;;;;22.08;10.95;;;;;;;16.41;28.72;102110.06;5103760;28;20114;-83
2022/03/26 06:17:14;;;;;;;;;;;;;;;17.01;27.31;102104.47;5112448;28;20039;-83
2022/03/26 06:19:42;;;;;;;22.10;10.98;;;;;;;16.37;28.10;102101.41;5094585;28;20018;-86
2022/03/26 06:22:07;;;;;;;23.17;11.50;;;;;;;16.54;28.00;102110.44;5101999;28;20099;-85
2022/03/26 06:24:35;;;;;;;19.42;10.75;;;;;;;16.35;27.80;102094.44;5097509;28;20110;-84
2022/03/26 06:27:02;;;;;;;15.65;10.77;;;;;;;16.99;27.32;102106.50;5103944;27;20073;-84
2022/03/26 06:29:28;;;;;;;18.50;11.00;;;;;;;17.20;26.99;102097.00;5110921;28;20096;-83
2022/03/26 06:31:57;;;;;;;18.58;10.80;;;;;;;17.37;26.75;102112.31;5088015;28;20491;-81
2022/03/26 06:34:24;;;;;;;19.48;11.02;;;;;;;17.87;25.89;102115.84;5095071;28;20250;-83
2022/03/26 06:36:50;;;;;;;;;;;;;;;19.01;24.82;102109.03;5110529;28;20050;-80
2022/03/26 06:39:15;;;;;;;14.38;10.30;;;;;;;18.84;24.24;102113.72;5110826;28;19968;-83
2022/03/26 06:41:43;;;;;;;;;;;;;;;18.11;25.41;102104.84;5110832;28;20087;-80
2022/03/26 06:44:08;;;;;;;20.58;10.60;;;;;;;18.39;24.98;102125.34;5091449;28;19959;-82
2022/03/26 06:46:35;;;;;;;;;;;;;;;18.38;24.96;102118.19;5113803;28;20038;-84
2022/03/26 06:49:01;;;;;;;16.80;10.70;;;;;;;18.99;24.13;102116.53;5098415;28;19916;-83
2022/03/26 06:51:26;;;;;;;;;;;;;;;19.06;23.98;102117.50;5103717;28;20371;-81
2022/03/26 06:53:52;;;;;;;16.85;10.35;;;;;;;19.04;24.28;102124.16;5103907;28;19923;-81
2022/03/26 06:56:17;;;;;;;;;;;;;;;20.56;22.35;102120.25;5109162;28;20036;-83
2022/03/26 06:58:44;;;;;;;;;;;;;;;21.12;21.62;102119.59;5113979;28;19962;-82
2022/03/26 07:01:14;;;;;;;16.67;10.40;;;;;;;22.41;20.14;102122.03;5110801;28;20079;-82
2022/03/26 07:03:40;;;;;;;13.95;10.43;;;;;;;22.63;20.19;102121.88;5092105;28;20040;-82
2022/03/26 07:06:05;;;;;;;13.82;9.85;;;;;;;22.51;20.17;102133.44;5094425;28;20024;-82
2022/03/26 07:08:31;;;;;;;16.48;10.50;;;;;;;22.76;19.98;102122.78;5110252;28;20055;-86
2022/03/26 07:10:56;;;;;;;19.05;10.38;;;;;;;21.84;20.85;102123.13;5069928;28;20031;-85
2022/03/26 07:13:24;;;;;;;17.35;10.45;;;;;;;21.53;21.08;102115.34;5099509;28;20040;-83
2022/03/26 07:15:54;;;;;;;16.65;11.50;;;;;;;20.44;22.62;102117.13;5100421;28;20043;-83
2022/03/26 07:18:20;;;;;;;12.88;10.15;;;;;;;20.56;22.32;102114.78;5094668;28;20070;-84
2022/03/26 07:20:46;;;;;;;15.45;10.32;;;;;;;21.28;21.53;102119.31;5106150;28;20040;-85
2022/03/26 07:23:12;;;;;;;14.43;10.63;;;;;;;22.08;20.69;102119.94;5100009;28;20114;-85
2022/03/26 07:25:37;;;;;;;14.63;10.45;;;;;;;22.47;20.18;102106.63;5102465;28;20494;-85
2022/03/26 07:28:04;;;;;;;13.43;10.10;;;;;;;22.77;20.08;102108.00;5094095;28;20036;-86
2022/03/26 07:30:30;;;;;;;13.15;9.50;;;;;;;21.24;21.00;102108.97;5103038;28;20023;-80
2022/03/26 07:32:56;;;;;;;15.70;10.07;;;;;;;21.41;20.93;102113.13;5093508;28;19982;-84
2022/03/26 07:35:23;;;;;;;14.93;10.10;;;;;;;21.91;20.71;102107.59;5105878;28;20547;-85
2022/03/26 07:37:49;;;;;;;14.98;9.85;;;;;;;21.50;20.81;102097.44;5108836;28;20035;-85
2022/03/26 07:40:14;;;;;;;11.82;9.98;;;;;;;22.59;20.02;102106.88;5089651;28;20192;-86
2022/03/26 07:42:42;;;;;;;13.50;9.15;;;;;;;22.18;19.84;102085.84;5111237;28;20059;-84
2022/03/26 07:45:09;;;;;;;14.38;9.52;;;;;;;22.31;20.20;102108.69;5107174;28;20047;-83
2022/03/26 07:47:38;;;;;;;13.40;9.85;;;;;;;22.93;19.41;102112.25;5112035;28;20423;-87
2022/03/26 07:50:08;;;;;;;14.20;10.13;;;;;;;22.30;19.94;102106.16;5112870;28;20038;-83
2022/03/26 07:52:35;;;;;;;13.73;10.15;;;;;;;22.64;19.73;102116.22;5112831;28;20078;-84
2022/03/26 07:55:01;;;;;;;14.65;10.18;;;;;;;22.23;19.92;102106.13;5093780;28;20070;-85
2022/03/26 07:57:28;;;;;;;14.18;10.00;;;;;;;22.63;19.35;102110.91;5115034;28;20028;-86
2022/03/26 07:59:53;;;;;;;15.20;9.90;;;;;;;22.18;19.78;102113.25;5125001;28;20048;-84
2022/03/26 08:02:29;;;;;;;13.63;9.75;;;;;;;23.35;18.94;102109.38;5108734;28;20491;-84
2022/03/26 08:04:57;;;;;;;13.55;9.25;;;;;;;23.59;18.68;102116.13;5106679;28;20710;-84
2022/03/26 08:07:32;;;;;;;13.18;9.85;;;;;;;23.99;18.47;102116.09;5103466;28;20043;-81
2022/03/26 08:09:59;;;;;;;14.40;9.55;;;;;;;23.99;18.64;102116.94;5111539;28;20138;-87
2022/03/26 08:12:26;;;;;;;15.27;10.63;;;;;;;23.79;18.87;102117.00;5075713;28;20495;-84
2022/03/26 08:14:51;;;;;;;12.02;9.68;;;;;;;24.34;18.13;102118.53;5093841;28;20073;-82
2022/03/26 08:17:17;;;;;;;16.48;9.30;;;;;;;22.92;19.17;102118.81;5078875;28;20048;-81
2022/03/26 08:19:49;;;;;;;15.27;9.57;;;;;;;23.44;18.97;102102.63;5113161;28;20419;-84
2022/03/26 08:22:14;;;;;;;12.80;8.95;;;;;;;23.37;18.35;102107.28;5112460;28;20418;-84
2022/03/26 08:24:40;;;;;;;14.25;9.07;;;;;;;24.15;18.04;102104.63;5076249;28;20043;-83
2022/03/26 08:27:05;;;;;;;16.58;9.00;;;;;;;23.21;19.03;102103.06;5114339;28;20031;-84
2022/03/26 08:29:31;;;;;;;12.30;9.13;;;;;;;23.52;18.49;102087.84;5096242;28;20043;-82
2022/03/26 08:31:58;;;;;;;22.38;9.63;;;;;;;24.10;18.33;102090.72;5094293;28;20023;-81
2022/03/26 08:34:24;;;;;;;12.07;9.43;;;;;;;22.67;19.05;102079.31;5092935;28;20363;-83
2022/03/26 08:36:53;;;;;;;13.98;9.80;;;;;;;23.37;18.46;102088.91;5106104;28;20032;-85
2022/03/26 08:39:20;;;;;;;15.32;10.13;;;;;;;25.30;16.68;102084.56;5106060;28;20110;-83
2022/03/26 08:41:46;;;;;;;18.75;10.15;;;;;;;24.10;17.40;102098.09;5110507;28;20044;-86
2022/03/26 08:44:11;;;;;;;16.27;9.90;;;;;;;24.19;17.79;102094.91;5094280;28;20039;-85
2022/03/26 08:46:37;;;;;;;11.02;8.77;;;;;;;24.34;17.20;102089.13;5111428;28;20106;-82
2022/03/26 08:49:02;;;;;;;13.32;9.73;;;;;;;24.21;17.54;102086.47;5093975;28;20101;-83
2022/03/26 08:51:28;;;;;;;15.35;10.18;;;;;;;24.43;17.47;102090.56;5092599;28;20032;-83
2022/03/26 08:53:53;;;;;;;12.48;9.88;;;;;;;24.23;17.63;102074.19;5094579;28;20465;-83
2022/03/26 08:56:20;;;;;;;12.13;10.82;;;;;;;24.99;16.90;102086.25;5109817;28;20445;-84
2022/03/26 08:58:46;;;;;;;12.88;9.77;;;;;;;24.58;17.20;102084.84;5111401;28;20491;-84
2022/03/26 09:01:11;;;;;;;13.30;9.45;;;;;;;24.55;17.42;102088.00;5110482;28;20034;-82
2022/03/26 09:03:37;;;;;;;12.90;9.60;;;;;;;24.53;16.83;102081.88;5110840;28;20144;-83
2022/03/26 09:06:09;;;;;;;13.65;9.43;;;;;;;23.88;17.22;102087.41;5112689;28;20031;-83
2022/03/26 09:08:38;;;;;;;12.32;9.13;;;;;;;24.77;16.50;102093.16;5111733;28;20038;-84
2022/03/26 09:11:04;;;;;;;17.33;9.13;;;;;;;25.70;15.93;102079.50;5093374;28;20028;-86
2022/03/26 09:13:33;;;;;;;12.48;9.05;;;;;;;25.33;16.23;102078.59;5073191;28;20115;-81
2022/03/26 09:16:00;;;;;;;11.70;9.52;;;;;;;25.50;15.92;102089.91;5102700;28;20032;-81
2022/03/26 09:18:27;;;;;;;12.10;9.27;;;;;;;25.06;16.12;102088.97;5106845;28;20035;-83
2022/03/26 09:20:55;;;;;;;14.63;9.38;;;;;;;24.48;16.58;102084.44;5092706;28;20030;-81
2022/03/26 09:23:27;;;;;;;11.43;8.88;;;;;;;25.41;15.97;102080.25;5114884;28;20019;-84
2022/03/26 09:25:53;;;;;;;12.15;8.93;;;;;;;24.88;16.58;102070.44;5108690;28;20040;-82
2022/03/26 09:28:19;;;;;;;12.40;9.68;;;;;;;26.06;15.35;102068.78;5094893;28;20480;-83
2022/03/26 09:30:45;;;;;;;13.07;9.15;;;;;;;27.06;14.64;102076.50;5063982;28;20107;-84
2022/03/26 09:33:10;;;;;;;13.32;8.80;;;;;;;27.94;13.80;102079.47;5096205;28;20484;-84
2022/03/26 09:35:36;;;;;;;12.25;8.65;;;;;;;27.12;14.35;102059.00;5088422;28;20055;-84
2022/03/26 09:38:21;;;;;;;11.68;9.40;;;;;;;29.10;12.65;102065.41;5111721;28;20039;-83
2022/03/26 09:40:46;;;;;;;13.38;8.82;;;;;;;28.77;13.25;102058.72;5103265;28;20040;-85
2022/03/26 09:43:15;;;;;;;11.43;9.18;;;;;;;29.73;12.31;102065.28;5066803;28;20031;-85
2022/03/26 09:45:45;;;;;;;16.35;9.10;;;;;;;30.49;12.05;102057.94;5086445;28;20415;-82
2022/03/26 09:48:13;;;;;;;15.15;8.63;;;;;;;29.67;12.26;102062.47;5100268;28;20036;-83
2022/03/26 09:50:41;;;;;;;11.23;9.27;;;;;;;29.38;12.54;102042.31;5105658;28;20100;-84
2022/03/26 09:53:13;;;;;;;13.40;9.15;;;;;;;28.11;13.12;102044.44;5102306;28;20024;-83
2022/03/26 09:55:47;;;;;;;12.45;8.93;;;;;;;28.82;12.39;102056.06;5104565;28;20043;-81
2022/03/26 09:58:18;;;;;;;14.43;9.40;;;;;;;28.43;12.21;102060.56;5114558;28;20473;-84
2022/03/26 10:00:48;;;;;;;13.30;9.20;;;;;;;28.37;12.70;102056.84;5114438;28;20035;-84
2022/03/26 10:03:22;;;;;;;12.10;8.90;;;;;;;29.64;10.96;102032.47;5103753;28;20036;-85
2022/03/26 10:05:49;;;;;;;11.23;8.60;;;;;;;28.98;11.72;102034.19;5106399;28;20032;-84
2022/03/26 10:08:22;;;;;;;14.30;8.68;;;;;;;28.58;12.37;102032.38;5110548;28;20058;-84
2022/03/26 10:10:49;;;;;;;9.63;8.55;;;;;;;27.56;12.96;102039.38;5105780;28;20024;-83
2022/03/26 10:13:37;;;;;;;14.93;9.10;;;;;;;28.32;12.82;102048.47;5112946;28;20043;-83
2022/03/26 10:16:19;;;;;;;11.57;8.55;;;;;;;27.29;12.97;102047.28;5095474;28;20176;-82
2022/03/26 10:19:03;;;;;;;10.63;8.77;;;;;;;27.71;12.96;102044.38;5114422;28;20042;-79
2022/03/26 10:21:43;;;;;;;11.75;9.10;;;;;;;29.13;11.63;102040.00;5119471;28;20563;-79
2022/03/26 10:28:37;;;;;;;12.80;8.43;;;;;;;28.44;12.69;102025.44;5081049;28;20075;-82
2022/03/26 10:34:58;;;;;;;10.18;9.07;;;;;;;30.52;10.76;102017.75;5014945;28;20054;-81
2022/03/26 10:37:24;;;;;;;15.18;9.63;;;;;;;29.12;11.51;101999.56;5034907;28;20044;-85
2022/03/26 10:40:30;;;;;;;;;;;;;;;;;;;;;
2022/03/26 10:43:07;;;;;;;9.73;8.73;;;;;;;32.17;10.15;102004.69;5054197;28;20108;-82
2022/03/26 10:49:27;;;;;;;10.13;8.50;;;;;;;32.53;9.32;101990.88;5069409;28;20032;-82
2022/03/26 10:51:53;;;;;;;10.40;8.68;;;;;;;30.36;11.43;101989.00;5070213;28;20195;-82
2022/03/26 10:54:40;;;;;;;14.52;9.18;;;;;;;30.75;11.24;101988.81;5054870;28;20037;-83
2022/03/26 10:57:16;;;;;;;;;;;;;;;;;;;;;
2022/03/26 11:00:03;;;;;;;12.63;8.88;;;;;;;30.37;11.55;101982.38;5063220;28;20123;-84
2022/03/26 11:03:44;;;;;;;12.45;9.43;;;;;;;31.04;10.81;101971.84;5046171;28;20139;-83
2022/03/26 11:06:24;;;;;;;11.27;8.88;;;;;;;30.98;10.67;101982.09;5100594;28;20043;-83
2022/03/26 11:09:02;;;;;;;10.88;8.27;;;;;;;30.26;11.26;101986.13;5119824;28;20054;-83
2022/03/26 11:11:45;;;;;;;;;;;;;;;;;;;;;
2022/03/26 11:14:28;;;;;;;11.90;8.50;;;;;;;28.77;12.18;101972.94;5044396;28;20489;-79
2022/03/26 11:17:44;;;;;;;9.50;8.50;;;;;;;27.64;12.49;101971.84;5062739;28;20033;-80
2022/03/26 11:20:38;;;;;;;9.73;8.30;;;;;;;26.23;13.96;101983.53;5047419;28;20040;-82
2022/03/26 11:23:39;;;;;;;13.15;10.02;;;;;;;24.99;15.56;101961.63;5030869;28;20038;-80
2022/03/26 11:27:03;;;;;;;13.57;11.07;;;;;;;24.74;15.97;101973.44;5039800;28;20041;-82
2022/03/26 11:29:50;;;;;;;18.83;13.68;;;;;;;24.80;16.27;101969.81;5040216;28;20087;-83
2022/03/26 11:36:04;;;;;;;16.98;11.77;;;;;;;23.38;17.29;101934.16;5047401;28;20048;-81
2022/03/26 11:38:38;;;;;;;12.98;10.40;;;;;;;23.29;17.84;101956.56;5070691;28;20035;-83
2022/03/26 11:41:22;;;;;;;13.68;10.75;;;;;;;22.24;18.38;101937.13;5073694;28;20452;-82
2022/03/26 11:44:26;;;;;;;13.70;10.25;;;;;;;23.45;17.57;101947.03;5092095;28;20039;-81
2022/03/26 11:52:46;;;;;;;12.35;9.90;;;;;;;24.10;16.53;101936.03;5103647;28;20041;-87